Etusivu
METAR-TAF:

METAR-TAF

Lentoasemat :

Mora, Ruotsi

Mora–Siljan

Leveyspiiri: 60-57-31N, Pituuspiiri: 14-30-40E, korkeus merenpinnasta: 193 m

Tämänhetkinen sää

Tämä raportti tehtiin 11 minuuttia sitten, kello 02.20 UTC
Tuuli 4 kn lännestä
Lämpötila 3°C
Kosteus 93%
Ilmanpaine 994 hPa
Näkyvyys 10 km tai enemmän

METAR: ESKM 250220Z AUTO 26004KT 9999 NCD 03/02 Q0994

Aika: 04:31 (02:31 UTC)


TAF: puuttuu

Säähavainnot ja -ennusteet yli 4000 lentoasemalta (METAR- ja TAF-raportit).

Käytössä olevat sääasemat on merkitty karttaan keltaisilla ja punaisilla pisteillä.

Aseta hiiri pisteen päälle nähdäksesi sääaseman nimen.

Klikkaa sitten nähdäksesi säähavainnot ja -ennusteet.

Kartan vaihtaminen: klikkaa mustalla rastilla varustettuja vihreitä pisteitä, niin voit zoomata sisään; viivalla varustettua vihreää pistettä, niin voit zoomata ulos tai vihreitä nuolia, niin pääset viereisille kartoille.


METAR-TAF: